N2KC KCVG-KOWB
Flight info
| Callsign | N2KC |
|---|---|
| Flight time | 0h 46m |
| Altitude | 22000 |
| Route | CHCLL6 BUSYY DCT DOWNS DCT |
| Aircraft | P180/L-SBDFGM3RWXY/LB1 |
Departure
| Time | 2026-05-06 03:38 |
|---|---|
| Airport | Cincinnati Northern Kentucky International Airport (KCVG) |
Arrival
| Time | 2026-05-06 04:24 |
|---|---|
| Airport | Owensboro Daviess County Airport (KOWB) |
| Time | Latitude | Longitude | Altitude | Speed | Heading |
|---|---|---|---|---|---|
| 2026-05-06 03:19 | 39.04376 | -84.65596 | 868 ft | 0 kts | 90° |
| 2026-05-06 03:34 | 39.04378 | -84.65568 | 867 ft | 5 kts | 66° |
| 2026-05-06 03:35 | 39.04415 | -84.65584 | 866 ft | 8 kts | 335° |
| 2026-05-06 03:35 | 39.04463 | -84.65639 | 864 ft | 12 kts | 268° |
| 2026-05-06 03:35 | 39.04463 | -84.65762 | 866 ft | 15 kts | 271° |
| 2026-05-06 03:35 | 39.04474 | -84.65902 | 857 ft | 13 kts | 301° |
| 2026-05-06 03:36 | 39.04492 | -84.65932 | 865 ft | 2 kts | 328° |
| 2026-05-06 03:36 | 39.04522 | -84.65926 | 860 ft | 0 kts | 28° |
| 2026-05-06 03:36 | 39.04533 | -84.65921 | 859 ft | 0 kts | 14° |
| 2026-05-06 03:37 | 39.04566 | -84.65920 | 859 ft | 9 kts | 358° |
| 2026-05-06 03:37 | 39.04622 | -84.65925 | 853 ft | 8 kts | 336° |
| 2026-05-06 03:37 | 39.04627 | -84.66150 | 864 ft | 64 kts | 271° |
| 2026-05-06 03:37 | 39.04633 | -84.67069 | 889 ft | 130 kts | 269° |
| 2026-05-06 03:38 | 39.04631 | -84.68296 | 1373 ft | 143 kts | 268° |
| 2026-05-06 03:38 | 39.04604 | -84.69597 | 2015 ft | 150 kts | 269° |
| 2026-05-06 03:38 | 39.04606 | -84.71052 | 2616 ft | 172 kts | 270° |
| 2026-05-06 03:38 | 39.04629 | -84.72640 | 3350 ft | 182 kts | 267° |
| 2026-05-06 03:39 | 39.04622 | -84.74291 | 4131 ft | 185 kts | 266° |
| 2026-05-06 03:39 | 39.04620 | -84.75948 | 4962 ft | 186 kts | 266° |
| 2026-05-06 03:39 | 39.04616 | -84.77616 | 5745 ft | 187 kts | 266° |
| 2026-05-06 03:39 | 39.04439 | -84.79243 | 6489 ft | 184 kts | 242° |
| 2026-05-06 03:40 | 39.03599 | -84.80440 | 7317 ft | 178 kts | 223° |
| 2026-05-06 03:40 | 39.02481 | -84.81155 | 8063 ft | 186 kts | 201° |
| 2026-05-06 03:40 | 39.01200 | -84.81471 | 8759 ft | 188 kts | 200° |
| 2026-05-06 03:40 | 38.99922 | -84.81834 | 9435 ft | 189 kts | 203° |
| 2026-05-06 03:41 | 38.98646 | -84.82233 | 10077 ft | 189 kts | 204° |
| 2026-05-06 03:41 | 38.97357 | -84.82623 | 10668 ft | 192 kts | 203° |
| 2026-05-06 03:41 | 38.96053 | -84.83014 | 11245 ft | 194 kts | 204° |
| 2026-05-06 03:41 | 38.94735 | -84.83409 | 11826 ft | 195 kts | 204° |
| 2026-05-06 03:42 | 38.93406 | -84.83808 | 12389 ft | 197 kts | 204° |
| 2026-05-06 03:42 | 38.92065 | -84.84212 | 12935 ft | 199 kts | 204° |
| 2026-05-06 03:42 | 38.90730 | -84.84614 | 13462 ft | 200 kts | 204° |
| 2026-05-06 03:42 | 38.89366 | -84.85027 | 13953 ft | 202 kts | 204° |
| 2026-05-06 03:43 | 38.87994 | -84.85433 | 14460 ft | 204 kts | 203° |
| 2026-05-06 03:43 | 38.86611 | -84.85846 | 14942 ft | 204 kts | 204° |
| 2026-05-06 03:43 | 38.85220 | -84.86268 | 15406 ft | 206 kts | 204° |
| 2026-05-06 03:43 | 38.83824 | -84.86688 | 15863 ft | 207 kts | 204° |
| 2026-05-06 03:44 | 38.82421 | -84.87109 | 16298 ft | 208 kts | 204° |
| 2026-05-06 03:44 | 38.81007 | -84.87533 | 16732 ft | 210 kts | 204° |
| 2026-05-06 03:44 | 38.79581 | -84.87962 | 17140 ft | 211 kts | 204° |
| 2026-05-06 03:44 | 38.78157 | -84.88415 | 17565 ft | 211 kts | 205° |
| 2026-05-06 03:45 | 38.76729 | -84.88867 | 17991 ft | 211 kts | 205° |
| 2026-05-06 03:45 | 38.75307 | -84.89314 | 18364 ft | 211 kts | 205° |
| 2026-05-06 03:45 | 38.73872 | -84.89768 | 18694 ft | 213 kts | 205° |
| 2026-05-06 03:45 | 38.72426 | -84.90222 | 19035 ft | 214 kts | 205° |
| 2026-05-06 03:46 | 38.70971 | -84.90676 | 19368 ft | 216 kts | 205° |
| 2026-05-06 03:46 | 38.69509 | -84.91135 | 19696 ft | 217 kts | 205° |
| 2026-05-06 03:46 | 38.68034 | -84.91600 | 20015 ft | 219 kts | 206° |
| 2026-05-06 03:46 | 38.66577 | -84.92049 | 20643 ft | 206 kts | 206° |
| 2026-05-06 03:47 | 38.65157 | -84.92489 | 20809 ft | 218 kts | 207° |
| 2026-05-06 03:47 | 38.63638 | -84.92995 | 20819 ft | 233 kts | 206° |
| 2026-05-06 03:47 | 38.62041 | -84.93492 | 21049 ft | 238 kts | 205° |
| 2026-05-06 03:47 | 38.60431 | -84.93976 | 21355 ft | 238 kts | 205° |
| 2026-05-06 03:48 | 38.58815 | -84.94481 | 21644 ft | 239 kts | 206° |
| 2026-05-06 03:48 | 38.57193 | -84.94993 | 21939 ft | 241 kts | 206° |
| 2026-05-06 03:48 | 38.55529 | -84.95520 | 21986 ft | 253 kts | 206° |
| 2026-05-06 03:48 | 38.53776 | -84.96080 | 21980 ft | 266 kts | 205° |
| 2026-05-06 03:49 | 38.51934 | -84.96651 | 21986 ft | 278 kts | 204° |
| 2026-05-06 03:49 | 38.50022 | -84.97242 | 22001 ft | 287 kts | 204° |
| 2026-05-06 03:49 | 38.48164 | -84.98110 | 22002 ft | 281 kts | 217° |
| 2026-05-06 03:49 | 38.46583 | -84.99545 | 22006 ft | 278 kts | 228° |
| 2026-05-06 03:50 | 38.45159 | -85.01236 | 22007 ft | 282 kts | 229° |
| 2026-05-06 03:50 | 38.43693 | -85.02923 | 22009 ft | 285 kts | 229° |
| 2026-05-06 03:50 | 38.42219 | -85.04627 | 22010 ft | 287 kts | 229° |
| 2026-05-06 03:50 | 38.40742 | -85.06355 | 22012 ft | 289 kts | 229° |
| 2026-05-06 03:51 | 38.39255 | -85.08085 | 22014 ft | 290 kts | 229° |
| 2026-05-06 03:51 | 38.37758 | -85.09816 | 22012 ft | 290 kts | 229° |
| 2026-05-06 03:51 | 38.36265 | -85.11552 | 22011 ft | 291 kts | 229° |
| 2026-05-06 03:51 | 38.34769 | -85.13292 | 22013 ft | 292 kts | 229° |
| 2026-05-06 03:52 | 38.33259 | -85.15034 | 22011 ft | 293 kts | 229° |
| 2026-05-06 03:52 | 38.31753 | -85.16781 | 22011 ft | 294 kts | 229° |
| 2026-05-06 03:52 | 38.30240 | -85.18542 | 22011 ft | 295 kts | 229° |
| 2026-05-06 03:52 | 38.28717 | -85.20297 | 22011 ft | 296 kts | 228° |
| 2026-05-06 03:53 | 38.27193 | -85.22055 | 22007 ft | 296 kts | 229° |
| 2026-05-06 03:53 | 38.25672 | -85.23823 | 22003 ft | 297 kts | 229° |
| 2026-05-06 03:53 | 38.24161 | -85.25565 | 22001 ft | 297 kts | 228° |
| 2026-05-06 03:53 | 38.22627 | -85.27329 | 22000 ft | 297 kts | 229° |
| 2026-05-06 03:54 | 38.21097 | -85.29102 | 22000 ft | 298 kts | 229° |
| 2026-05-06 03:54 | 38.19564 | -85.30870 | 21998 ft | 298 kts | 228° |
| 2026-05-06 03:54 | 38.18025 | -85.32636 | 21987 ft | 298 kts | 228° |
| 2026-05-06 03:54 | 38.16491 | -85.34410 | 21988 ft | 298 kts | 229° |
| 2026-05-06 03:55 | 38.14957 | -85.36176 | 21990 ft | 298 kts | 228° |
| 2026-05-06 03:55 | 38.13416 | -85.37944 | 21990 ft | 298 kts | 228° |
| 2026-05-06 03:55 | 38.11878 | -85.39716 | 21990 ft | 298 kts | 229° |
| 2026-05-06 03:55 | 38.10408 | -85.41551 | 21987 ft | 294 kts | 235° |
| 2026-05-06 03:56 | 38.09347 | -85.43733 | 21983 ft | 289 kts | 245° |
| 2026-05-06 03:56 | 38.08649 | -85.46112 | 21980 ft | 288 kts | 256° |
| 2026-05-06 03:56 | 38.08376 | -85.48623 | 21979 ft | 288 kts | 265° |
| 2026-05-06 03:56 | 38.08312 | -85.51167 | 21980 ft | 288 kts | 265° |
| 2026-05-06 03:57 | 38.08206 | -85.53707 | 21980 ft | 288 kts | 264° |
| 2026-05-06 03:57 | 38.08096 | -85.56247 | 21987 ft | 288 kts | 265° |
| 2026-05-06 03:57 | 38.08013 | -85.58791 | 21988 ft | 288 kts | 265° |
| 2026-05-06 03:57 | 38.07929 | -85.61329 | 21990 ft | 288 kts | 265° |
| 2026-05-06 03:58 | 38.07830 | -85.63870 | 21991 ft | 288 kts | 265° |
| 2026-05-06 03:58 | 38.07729 | -85.66411 | 21991 ft | 288 kts | 265° |
| 2026-05-06 03:58 | 38.07637 | -85.68950 | 21991 ft | 288 kts | 265° |
| 2026-05-06 03:58 | 38.07544 | -85.71489 | 21990 ft | 288 kts | 265° |
| 2026-05-06 03:59 | 38.07444 | -85.74030 | 21990 ft | 288 kts | 265° |
| 2026-05-06 03:59 | 38.07346 | -85.76567 | 21980 ft | 288 kts | 265° |
| 2026-05-06 03:59 | 38.07247 | -85.79135 | 21562 ft | 293 kts | 265° |
| 2026-05-06 03:59 | 38.07154 | -85.81734 | 21134 ft | 296 kts | 265° |
| 2026-05-06 04:00 | 38.07053 | -85.84350 | 20712 ft | 297 kts | 265° |
| 2026-05-06 04:00 | 38.06942 | -85.86968 | 20299 ft | 298 kts | 265° |
| 2026-05-06 04:00 | 38.06843 | -85.89591 | 19889 ft | 297 kts | 265° |
| 2026-05-06 04:00 | 38.06778 | -85.91325 | 19621 ft | 297 kts | 265° |
| 2026-05-06 04:01 | 38.06635 | -85.94818 | 19090 ft | 296 kts | 264° |
| 2026-05-06 04:01 | 38.06565 | -85.96541 | 18828 ft | 295 kts | 264° |
| 2026-05-06 04:01 | 38.06463 | -85.99141 | 18437 ft | 294 kts | 264° |
| 2026-05-06 04:01 | 38.06362 | -86.01725 | 18037 ft | 293 kts | 264° |
| 2026-05-06 04:02 | 38.06252 | -86.04310 | 17590 ft | 292 kts | 264° |
| 2026-05-06 04:02 | 38.06145 | -86.06879 | 17140 ft | 292 kts | 264° |
| 2026-05-06 04:02 | 38.06044 | -86.09453 | 16681 ft | 292 kts | 265° |
| 2026-05-06 04:02 | 38.05938 | -86.12029 | 16232 ft | 292 kts | 264° |
| 2026-05-06 04:03 | 38.05829 | -86.14602 | 15784 ft | 292 kts | 264° |
| 2026-05-06 04:03 | 38.05714 | -86.17171 | 15341 ft | 292 kts | 265° |
| 2026-05-06 04:03 | 38.05619 | -86.19739 | 14923 ft | 292 kts | 265° |
| 2026-05-06 04:03 | 38.05516 | -86.22309 | 14498 ft | 291 kts | 265° |
| 2026-05-06 04:04 | 38.05313 | -86.24858 | 14158 ft | 288 kts | 257° |
| 2026-05-06 04:04 | 38.04698 | -86.27225 | 14150 ft | 278 kts | 249° |
| 2026-05-06 04:04 | 38.03947 | -86.29439 | 14146 ft | 270 kts | 248° |
| 2026-05-06 04:04 | 38.03226 | -86.31610 | 14139 ft | 264 kts | 248° |
| 2026-05-06 04:05 | 38.02523 | -86.33738 | 14137 ft | 260 kts | 248° |
| 2026-05-06 04:05 | 38.01811 | -86.35839 | 14137 ft | 258 kts | 248° |
| 2026-05-06 04:05 | 38.01108 | -86.37920 | 14138 ft | 256 kts | 248° |
| 2026-05-06 04:05 | 38.00418 | -86.39990 | 14134 ft | 254 kts | 248° |
| 2026-05-06 04:06 | 37.99728 | -86.42052 | 14138 ft | 253 kts | 248° |
| 2026-05-06 04:06 | 37.99046 | -86.44079 | 14135 ft | 253 kts | 248° |
| 2026-05-06 04:06 | 37.98356 | -86.46123 | 14132 ft | 252 kts | 248° |
| 2026-05-06 04:06 | 37.97668 | -86.48168 | 14134 ft | 252 kts | 248° |
| 2026-05-06 04:07 | 37.96979 | -86.50211 | 14143 ft | 252 kts | 248° |
| 2026-05-06 04:07 | 37.96293 | -86.52250 | 14133 ft | 252 kts | 248° |
| 2026-05-06 04:07 | 37.95610 | -86.54285 | 14138 ft | 251 kts | 248° |
| 2026-05-06 04:07 | 37.94915 | -86.56329 | 14128 ft | 254 kts | 248° |
| 2026-05-06 04:08 | 37.94219 | -86.58391 | 14131 ft | 256 kts | 247° |
| 2026-05-06 04:08 | 37.93518 | -86.60468 | 14133 ft | 257 kts | 247° |
| 2026-05-06 04:08 | 37.92813 | -86.62554 | 14133 ft | 258 kts | 247° |
| 2026-05-06 04:08 | 37.92097 | -86.64648 | 14141 ft | 259 kts | 247° |
| 2026-05-06 04:09 | 37.91386 | -86.66749 | 14138 ft | 260 kts | 247° |
| 2026-05-06 04:09 | 37.90675 | -86.68861 | 14128 ft | 261 kts | 247° |
| 2026-05-06 04:09 | 37.89963 | -86.70969 | 14127 ft | 261 kts | 247° |
| 2026-05-06 04:09 | 37.89241 | -86.73078 | 14130 ft | 261 kts | 247° |
| 2026-05-06 04:10 | 37.88525 | -86.75189 | 14128 ft | 261 kts | 247° |
| 2026-05-06 04:10 | 37.87807 | -86.77300 | 14135 ft | 261 kts | 247° |
| 2026-05-06 04:10 | 37.87089 | -86.79420 | 14060 ft | 264 kts | 247° |
| 2026-05-06 04:10 | 37.86359 | -86.81566 | 13768 ft | 267 kts | 247° |
| 2026-05-06 04:11 | 37.85623 | -86.83740 | 13407 ft | 270 kts | 247° |
| 2026-05-06 04:11 | 37.84873 | -86.85933 | 13044 ft | 272 kts | 247° |
| 2026-05-06 04:11 | 37.84121 | -86.88125 | 12690 ft | 272 kts | 247° |
| 2026-05-06 04:11 | 37.83374 | -86.90329 | 12334 ft | 273 kts | 247° |
| 2026-05-06 04:12 | 37.82619 | -86.92530 | 11977 ft | 273 kts | 246° |
| 2026-05-06 04:12 | 37.81862 | -86.94735 | 11629 ft | 273 kts | 247° |
| 2026-05-06 04:12 | 37.81108 | -86.96942 | 11269 ft | 274 kts | 246° |
| 2026-05-06 04:12 | 37.80349 | -86.99151 | 10907 ft | 274 kts | 246° |
| 2026-05-06 04:13 | 37.79588 | -87.01362 | 10551 ft | 274 kts | 246° |
| 2026-05-06 04:13 | 37.78575 | -87.03379 | 10182 ft | 276 kts | 227° |
| 2026-05-06 04:13 | 37.76942 | -87.04639 | 9805 ft | 282 kts | 210° |
| 2026-05-06 04:13 | 37.75151 | -87.05725 | 9068 ft | 289 kts | 212° |
| 2026-05-06 04:14 | 37.73441 | -87.07071 | 8384 ft | 290 kts | 219° |
| 2026-05-06 04:14 | 37.71865 | -87.08587 | 8041 ft | 282 kts | 220° |
| 2026-05-06 04:14 | 37.70293 | -87.09979 | 7682 ft | 266 kts | 216° |
| 2026-05-06 04:14 | 37.68798 | -87.11188 | 7342 ft | 246 kts | 217° |
| 2026-05-06 04:15 | 37.67431 | -87.12374 | 7018 ft | 231 kts | 218° |
| 2026-05-06 04:15 | 37.66145 | -87.13510 | 6723 ft | 222 kts | 218° |
| 2026-05-06 04:15 | 37.64881 | -87.14587 | 6433 ft | 216 kts | 217° |
| 2026-05-06 04:15 | 37.63650 | -87.15631 | 6132 ft | 212 kts | 214° |
| 2026-05-06 04:16 | 37.62235 | -87.16148 | 5852 ft | 217 kts | 189° |
| 2026-05-06 04:16 | 37.60734 | -87.15815 | 5562 ft | 229 kts | 161° |
| 2026-05-06 04:16 | 37.59519 | -87.14451 | 5281 ft | 238 kts | 139° |
| 2026-05-06 04:16 | 37.58443 | -87.12881 | 5017 ft | 234 kts | 139° |
| 2026-05-06 04:17 | 37.57348 | -87.11393 | 4796 ft | 229 kts | 141° |
| 2026-05-06 04:17 | 37.56234 | -87.09946 | 4581 ft | 230 kts | 144° |
| 2026-05-06 04:17 | 37.54821 | -87.09173 | 4294 ft | 220 kts | 180° |
| 2026-05-06 04:17 | 37.53416 | -87.09801 | 4018 ft | 218 kts | 214° |
| 2026-05-06 04:18 | 37.52403 | -87.11214 | 3742 ft | 223 kts | 243° |
| 2026-05-06 04:18 | 37.52255 | -87.13178 | 3483 ft | 235 kts | 277° |
| 2026-05-06 04:18 | 37.53020 | -87.15019 | 3224 ft | 243 kts | 306° |
| 2026-05-06 04:18 | 37.54348 | -87.16316 | 2877 ft | 245 kts | 337° |
| 2026-05-06 04:19 | 37.56008 | -87.16464 | 2573 ft | 235 kts | 10° |
| 2026-05-06 04:19 | 37.57502 | -87.16060 | 2575 ft | 201 kts | 6° |
| 2026-05-06 04:19 | 37.58685 | -87.16079 | 2555 ft | 142 kts | 354° |
| 2026-05-06 04:19 | 37.59610 | -87.16115 | 2570 ft | 138 kts | 359° |
| 2026-05-06 04:20 | 37.60581 | -87.16145 | 2568 ft | 138 kts | 358° |
| 2026-05-06 04:20 | 37.61525 | -87.16176 | 2568 ft | 133 kts | 356° |
| 2026-05-06 04:20 | 37.62467 | -87.16252 | 2461 ft | 141 kts | 357° |
| 2026-05-06 04:20 | 37.63462 | -87.16275 | 2274 ft | 139 kts | 358° |
| 2026-05-06 04:21 | 37.64362 | -87.16301 | 2097 ft | 122 kts | 357° |
| 2026-05-06 04:21 | 37.65170 | -87.16346 | 1938 ft | 114 kts | 357° |
| 2026-05-06 04:21 | 37.65943 | -87.16374 | 1794 ft | 109 kts | 358° |
| 2026-05-06 04:21 | 37.66681 | -87.16416 | 1657 ft | 104 kts | 358° |
| 2026-05-06 04:22 | 37.67408 | -87.16441 | 1511 ft | 104 kts | 360° |
| 2026-05-06 04:22 | 37.68136 | -87.16479 | 1370 ft | 106 kts | 356° |
| 2026-05-06 04:22 | 37.68856 | -87.16512 | 1218 ft | 101 kts | 359° |
| 2026-05-06 04:23 | 37.70255 | -87.16558 | 930 ft | 101 kts | 357° |
| 2026-05-06 04:23 | 37.70948 | -87.16561 | 847 ft | 95 kts | 355° |
| 2026-05-06 04:23 | 37.71597 | -87.16586 | 747 ft | 97 kts | 0° |
| 2026-05-06 04:23 | 37.72251 | -87.16636 | 626 ft | 92 kts | 353° |
| 2026-05-06 04:24 | 37.72888 | -87.16680 | 438 ft | 89 kts | 356° |
| 2026-05-06 04:24 | 37.73427 | -87.16704 | 403 ft | 65 kts | 356° |
| 2026-05-06 04:24 | 37.73672 | -87.16717 | 404 ft | 18 kts | 359° |
| 2026-05-06 04:24 | 37.73762 | -87.16685 | 405 ft | 13 kts | 61° |
| 2026-05-06 04:25 | 37.73804 | -87.16595 | 405 ft | 0 kts | 56° |
| 2026-05-06 04:25 | 37.73805 | -87.16591 | 405 ft | 2 kts | 56° |
| 2026-05-06 04:25 | 37.73815 | -87.16549 | 405 ft | 8 kts | 123° |
| 2026-05-06 04:25 | 37.73781 | -87.16488 | 405 ft | 11 kts | 94° |
| 2026-05-06 04:26 | 37.73792 | -87.16408 | 405 ft | 7 kts | 88° |
| 2026-05-06 04:26 | 37.73780 | -87.16415 | 405 ft | 1 kts | 278° |
| 2026-05-06 04:26 | 37.73780 | -87.16416 | 405 ft | 0 kts | 279° |